Time;durP1;ratioP1;P1;durP2;ratioP2;P2;SDS_P1;SDS_P2;PMS_P1;PMS_P2;Temp;Humidity;BMP_temperature;BMP_pressure;BME280_temperature;BME280_humidity;BME280_pressure;Samples;Min_cycle;Max_cycle;Signal;HPM_P1;HPM_P2
2023/04/30 00:01:44;;;;;;;0.55;0.35;;;8.40;99.90;;;;;;5089936;28;20396;-66
2023/04/30 00:04:10;;;;;;;0.30;0.30;;;8.40;99.90;;;;;;5089295;28;20044;-66
2023/04/30 00:06:35;;;;;;;0.30;0.30;;;8.30;99.90;;;;;;5089650;28;20099;-66
2023/04/30 00:09:01;;;;;;;1.05;0.43;;;8.20;99.90;;;;;;5089697;28;20109;-66
2023/04/30 00:11:27;;;;;;;0.90;0.40;;;8.20;99.90;;;;;;5072180;28;20078;-66
2023/04/30 00:13:53;;;;;;;0.57;0.30;;;8.10;99.90;;;;;;5089629;28;20181;-66
2023/04/30 00:16:19;;;;;;;1.05;0.70;;;8.10;99.90;;;;;;5072761;28;20119;-66
2023/04/30 00:18:45;;;;;;;1.35;0.55;;;8.00;99.90;;;;;;5090516;28;20698;-66
2023/04/30 00:21:10;;;;;;;0.75;0.32;;;7.90;99.90;;;;;;5072843;28;20520;-66
2023/04/30 00:23:36;;;;;;;0.93;0.40;;;7.80;99.90;;;;;;5090828;28;20470;-66
2023/04/30 00:26:02;;;;;;;0.38;0.38;;;7.70;99.90;;;;;;5090362;28;20097;-66
2023/04/30 00:28:28;;;;;;;1.42;0.82;;;7.70;99.90;;;;;;5089556;28;20040;-66
2023/04/30 00:30:53;;;;;;;0.75;0.47;;;7.60;99.90;;;;;;5089323;28;20486;-66
2023/04/30 00:33:19;;;;;;;1.75;0.50;;;7.60;99.90;;;;;;5088940;28;20042;-66
2023/04/30 00:35:45;;;;;;;0.77;0.57;;;7.50;99.90;;;;;;5090516;28;20048;-66
2023/04/30 00:38:11;;;;;;;1.33;0.60;;;7.50;99.90;;;;;;5089226;28;20044;-66
2023/04/30 00:40:39;;;;;;;0.38;0.38;;;7.40;99.90;;;;;;5089921;28;20032;-66
2023/04/30 00:43:04;;;;;;;1.10;0.65;;;7.40;99.90;;;;;;5090222;28;20040;-66
2023/04/30 00:45:30;;;;;;;2.22;0.75;;;7.40;99.90;;;;;;5090115;28;20165;-66
2023/04/30 00:47:56;;;;;;;0.50;0.30;;;7.30;99.90;;;;;;5088469;28;20043;-66
2023/04/30 00:50:23;;;;;;;0.93;0.30;;;7.30;99.90;;;;;;5088874;28;20055;-66
2023/04/30 00:52:50;;;;;;;2.05;0.45;;;7.20;99.90;;;;;;5089802;28;20048;-66
2023/04/30 00:55:16;;;;;;;0.85;0.38;;;7.10;99.90;;;;;;5089167;28;20032;-66
2023/04/30 00:57:42;;;;;;;0.70;0.47;;;7.00;99.90;;;;;;5089173;28;20035;-66
2023/04/30 01:00:10;;;;;;;1.80;0.70;;;6.90;99.90;;;;;;5107863;28;20531;-66
2023/04/30 01:02:39;;;;;;;0.88;0.60;;;6.80;99.90;;;;;;5110873;28;20035;-66
2023/04/30 01:05:06;;;;;;;2.45;0.85;;;6.80;99.90;;;;;;5110366;28;20104;-66
2023/04/30 01:07:37;;;;;;;0.47;0.40;;;6.70;99.90;;;;;;5091790;28;20031;-66
2023/04/30 01:10:04;;;;;;;0.43;0.30;;;6.60;99.90;;;;;;5109320;28;20040;-66
2023/04/30 01:12:33;;;;;;;0.80;0.40;;;6.60;99.90;;;;;;5110423;28;20130;-66
2023/04/30 01:15:14;;;;;;;0.50;0.45;;;6.50;99.90;;;;;;5109845;28;20043;-66
2023/04/30 01:18:02;;;;;;;0.32;0.32;;;6.50;99.90;;;;;;5109732;28;20047;-66
2023/04/30 01:20:29;;;;;;;0.47;0.45;;;6.40;99.90;;;;;;5092279;28;20122;-66
2023/04/30 01:23:07;;;;;;;0.75;0.47;;;6.40;99.90;;;;;;5091498;28;20032;-66
2023/04/30 01:25:39;;;;;;;0.95;0.55;;;6.30;99.90;;;;;;5092432;28;20147;-66
2023/04/30 01:28:21;;;;;;;1.13;0.40;;;6.30;99.90;;;;;;5108740;28;20075;-66
2023/04/30 01:30:47;;;;;;;0.60;0.45;;;6.20;99.90;;;;;;5092082;28;20081;-66
2023/04/30 01:33:13;;;;;;;1.55;0.70;;;6.20;99.90;;;;;;5091956;28;20040;-66
2023/04/30 01:36:07;;;;;;;0.88;0.52;;;6.20;99.90;;;;;;5109805;28;20462;-66
2023/04/30 01:38:38;;;;;;;1.05;0.88;;;6.10;99.90;;;;;;5109197;28;20048;-66
2023/04/30 01:41:30;;;;;;;1.63;0.57;;;6.10;99.90;;;;;;5110488;28;20031;-66
2023/04/30 01:44:28;;;;;;;4.55;0.73;;;6.10;99.90;;;;;;5107930;28;20192;-66
2023/04/30 01:47:40;;;;;;;1.05;0.43;;;6.10;99.90;;;;;;5108918;28;20047;-66
2023/04/30 01:50:47;;;;;;;0.50;0.47;;;6.00;99.90;;;;;;5104999;28;20191;-67
2023/04/30 01:53:23;;;;;;;1.45;0.60;;;6.00;99.90;;;;;;5109197;28;20047;-66
2023/04/30 01:56:14;;;;;;;1.25;0.65;;;6.00;99.90;;;;;;5109544;28;20040;-66
2023/04/30 01:58:40;;;;;;;1.75;0.80;;;5.90;99.90;;;;;;5109010;28;20076;-66
2023/04/30 02:01:06;;;;;;;0.50;0.20;;;5.80;99.90;;;;;;5108689;28;20520;-66
2023/04/30 02:03:32;;;;;;;0.40;0.40;;;5.80;99.90;;;;;;5108294;28;20092;-66
2023/04/30 02:05:58;;;;;;;0.50;0.40;;;5.70;99.90;;;;;;5110201;28;20043;-66
2023/04/30 02:08:24;;;;;;;0.40;0.40;;;5.70;99.90;;;;;;5091950;28;20096;-66
2023/04/30 02:10:49;;;;;;;0.75;0.50;;;5.60;99.90;;;;;;5108030;28;20488;-66
2023/04/30 02:13:16;;;;;;;1.08;0.63;;;5.60;99.90;;;;;;5109829;28;20159;-66
2023/04/30 02:15:41;;;;;;;0.52;0.50;;;5.60;99.90;;;;;;5108750;28;20126;-67
2023/04/30 02:18:07;;;;;;;1.00;0.68;;;5.60;99.90;;;;;;5111359;28;20110;-67
2023/04/30 02:20:33;;;;;;;0.82;0.63;;;5.60;99.90;;;;;;5112550;28;20039;-67
2023/04/30 02:22:59;;;;;;;1.00;0.60;;;5.60;99.90;;;;;;5112343;28;20439;-66
2023/04/30 02:25:25;;;;;;;0.80;0.63;;;5.60;99.90;;;;;;5111949;28;20054;-66
2023/04/30 02:27:50;;;;;;;2.80;0.65;;;5.60;99.90;;;;;;5112141;28;20496;-67
2023/04/30 02:30:18;;;;;;;0.40;0.30;;;5.60;99.90;;;;;;5112291;28;20035;-66
2023/04/30 02:32:44;;;;;;;0.22;0.22;;;5.60;99.90;;;;;;5111609;28;20477;-67
2023/04/30 02:35:10;;;;;;;1.17;0.50;;;5.50;99.90;;;;;;5111898;28;20044;-67
2023/04/30 02:37:35;;;;;;;0.32;0.32;;;5.40;99.90;;;;;;5112725;28;20136;-67
2023/04/30 02:40:01;;;;;;;0.40;0.35;;;5.30;99.90;;;;;;5113100;28;20035;-67
2023/04/30 02:42:27;;;;;;;0.52;0.28;;;5.20;99.90;;;;;;5113128;28;20046;-67
2023/04/30 02:44:53;;;;;;;0.65;0.40;;;5.10;99.90;;;;;;5112394;28;20043;-67
2023/04/30 02:47:18;;;;;;;0.30;0.25;;;5.10;99.90;;;;;;5112166;28;20039;-67
2023/04/30 02:49:44;;;;;;;0.60;0.50;;;5.00;99.90;;;;;;5113123;28;20035;-67
2023/04/30 02:52:10;;;;;;;0.20;0.20;;;5.00;99.90;;;;;;5112252;28;20380;-67
2023/04/30 02:54:35;;;;;;;0.98;0.35;;;5.00;99.90;;;;;;5112941;28;20039;-67
2023/04/30 02:57:01;;;;;;;0.28;0.28;;;4.90;99.90;;;;;;5111540;28;20039;-67
2023/04/30 02:59:27;;;;;;;1.10;0.47;;;4.90;99.90;;;;;;5112392;28;20046;-67
2023/04/30 03:01:53;;;;;;;0.65;0.30;;;4.90;99.90;;;;;;5111520;28;20123;-67
2023/04/30 03:04:19;;;;;;;1.45;0.70;;;4.90;99.90;;;;;;5112878;28;20035;-67
2023/04/30 03:06:44;;;;;;;1.40;0.63;;;5.00;99.90;;;;;;5111077;28;20051;-67
2023/04/30 03:09:10;;;;;;;0.88;0.50;;;5.00;99.90;;;;;;5112853;28;20035;-67
2023/04/30 03:11:36;;;;;;;0.95;0.40;;;5.00;99.90;;;;;;5112543;28;20496;-67
2023/04/30 03:14:03;;;;;;;0.88;0.47;;;5.00;99.90;;;;;;5111806;28;20104;-67
2023/04/30 03:16:30;;;;;;;0.55;0.43;;;5.00;99.90;;;;;;5111368;28;20430;-67
2023/04/30 03:18:56;;;;;;;0.30;0.30;;;5.00;99.90;;;;;;5111161;28;20067;-67
2023/04/30 03:21:21;;;;;;;0.35;0.32;;;5.00;99.90;;;;;;5110622;28;20089;-67
2023/04/30 03:23:47;;;;;;;1.08;0.60;;;5.00;99.90;;;;;;5112533;28;20035;-67
2023/04/30 03:26:13;;;;;;;0.55;0.50;;;5.10;99.90;;;;;;5112278;28;20111;-67
2023/04/30 03:28:39;;;;;;;0.43;0.43;;;5.10;99.90;;;;;;5110076;28;20123;-67
2023/04/30 03:31:05;;;;;;;1.25;0.60;;;5.10;99.90;;;;;;5111126;28;20130;-67
2023/04/30 03:33:33;;;;;;;0.85;0.40;;;5.10;99.90;;;;;;5110796;28;20478;-67
2023/04/30 03:35:59;;;;;;;0.70;0.50;;;5.10;99.90;;;;;;5093782;28;20496;-67
2023/04/30 03:38:25;;;;;;;0.80;0.52;;;5.10;99.90;;;;;;5110686;28;20042;-67
2023/04/30 03:40:51;;;;;;;4.22;0.85;;;5.10;99.90;;;;;;5110048;28;20124;-67
2023/04/30 03:43:17;;;;;;;0.40;0.40;;;5.00;99.90;;;;;;5110571;28;20036;-67
2023/04/30 03:45:42;;;;;;;0.77;0.55;;;5.00;99.90;;;;;;5112124;28;20039;-67
2023/04/30 03:48:08;;;;;;;1.45;0.70;;;5.00;99.90;;;;;;5110246;28;20054;-67
2023/04/30 03:50:34;;;;;;;0.20;0.20;;;5.00;99.90;;;;;;5110360;28;20488;-67
2023/04/30 03:53:00;;;;;;;1.88;0.90;;;5.00;99.90;;;;;;5110734;28;20035;-67
2023/04/30 03:55:26;;;;;;;1.30;0.60;;;4.90;99.90;;;;;;5109891;28;20114;-67
2023/04/30 03:57:52;;;;;;;1.13;0.70;;;4.90;99.90;;;;;;5110496;28;20043;-67
2023/04/30 04:00:18;;;;;;;1.42;0.60;;;4.80;99.90;;;;;;5110477;28;20055;-67
2023/04/30 04:02:44;;;;;;;0.40;0.40;;;4.80;99.90;;;;;;5109663;28;20040;-67
2023/04/30 04:05:09;;;;;;;0.68;0.57;;;4.80;99.90;;;;;;5110195;28;20388;-67
2023/04/30 04:07:35;;;;;;;0.82;0.52;;;4.80;99.90;;;;;;5111387;28;20119;-67
2023/04/30 04:10:01;;;;;;;0.93;0.40;;;4.80;99.90;;;;;;5109608;28;20035;-67
2023/04/30 04:12:27;;;;;;;3.60;0.55;;;4.80;99.90;;;;;;5109955;28;20083;-67
2023/04/30 04:14:53;;;;;;;0.60;0.38;;;4.80;99.90;;;;;;5111541;28;20058;-67
2023/04/30 04:17:19;;;;;;;1.10;0.63;;;4.80;99.90;;;;;;5092521;28;20032;-67
2023/04/30 04:19:45;;;;;;;0.98;0.50;;;4.80;99.90;;;;;;5110196;28;20027;-67
2023/04/30 04:22:10;;;;;;;0.82;0.65;;;4.80;99.90;;;;;;5111401;28;20070;-67
2023/04/30 04:24:37;;;;;;;1.52;0.68;;;4.80;99.90;;;;;;5109517;28;20075;-67
2023/04/30 04:27:02;;;;;;;1.23;0.70;;;4.80;99.90;;;;;;5111280;28;20100;-67
2023/04/30 04:29:29;;;;;;;4.25;1.23;;;4.80;99.90;;;;;;5109824;28;20493;-67
2023/04/30 04:31:55;;;;;;;0.93;0.63;;;4.80;99.90;;;;;;5109255;28;20492;-67
2023/04/30 04:34:21;;;;;;;1.17;0.65;;;4.80;99.90;;;;;;5109563;28;20050;-67
2023/04/30 04:36:46;;;;;;;0.90;0.65;;;4.80;99.90;;;;;;5108628;28;20044;-67
2023/04/30 04:39:12;;;;;;;0.85;0.45;;;4.80;99.90;;;;;;5110951;28;20114;-67
2023/04/30 04:41:38;;;;;;;0.93;0.63;;;4.80;99.90;;;;;;5092185;28;20036;-67
2023/04/30 04:44:04;;;;;;;0.98;0.60;;;4.80;99.90;;;;;;5109088;28;20047;-67
2023/04/30 04:46:31;;;;;;;0.88;0.60;;;4.70;99.90;;;;;;5109676;28;20035;-67
2023/04/30 04:48:57;;;;;;;0.47;0.40;;;4.70;99.90;;;;;;5092578;28;20052;-67
2023/04/30 04:51:23;;;;;;;0.43;0.38;;;4.60;99.90;;;;;;5110396;28;20067;-67
2023/04/30 04:53:49;;;;;;;0.90;0.60;;;4.60;99.90;;;;;;5110732;28;20687;-67
2023/04/30 04:56:15;;;;;;;1.10;0.55;;;4.60;99.90;;;;;;5109409;28;20040;-67
2023/04/30 04:58:41;;;;;;;0.70;0.43;;;4.60;99.90;;;;;;5091962;28;20430;-67
2023/04/30 05:01:08;;;;;;;0.30;0.30;;;4.60;99.90;;;;;;5109296;28;20118;-68
2023/04/30 05:03:37;;;;;;;0.40;0.40;;;4.60;99.90;;;;;;5109318;28;20058;-68
2023/04/30 05:06:04;;;;;;;1.05;0.73;;;4.60;99.90;;;;;;5110019;28;20040;-68
2023/04/30 05:08:30;;;;;;;0.68;0.52;;;4.70;99.90;;;;;;5092263;28;20043;-67
2023/04/30 05:10:55;;;;;;;0.57;0.30;;;4.70;99.90;;;;;;5109124;28;20043;-67
2023/04/30 05:13:21;;;;;;;0.80;0.60;;;4.80;99.90;;;;;;5108376;28;20189;-67
2023/04/30 05:15:51;;;;;;;1.20;0.43;;;4.90;99.90;;;;;;5110766;28;20051;-68
2023/04/30 05:18:17;;;;;;;2.17;0.95;;;4.90;99.90;;;;;;5109227;28;20461;-67
2023/04/30 05:20:42;;;;;;;0.50;0.40;;;5.00;99.90;;;;;;5108508;28;20042;-67
2023/04/30 05:23:08;;;;;;;0.32;0.30;;;5.10;99.90;;;;;;5109153;28;20038;-67
2023/04/30 05:25:35;;;;;;;1.60;0.75;;;5.20;99.90;;;;;;5092128;28;20061;-68
2023/04/30 05:28:02;;;;;;;1.65;0.88;;;5.30;99.90;;;;;;5109386;28;20046;-67
2023/04/30 05:30:28;;;;;;;0.75;0.52;;;5.40;99.90;;;;;;5108818;28;20079;-67
2023/04/30 05:32:55;;;;;;;1.88;0.70;;;5.60;99.90;;;;;;5109642;28;20164;-66
2023/04/30 05:35:21;;;;;;;0.77;0.43;;;5.80;99.90;;;;;;5109052;28;20075;-67
2023/04/30 05:37:47;;;;;;;1.40;0.90;;;6.00;99.90;;;;;;5109426;28;20086;-66
2023/04/30 05:40:13;;;;;;;0.75;0.52;;;6.10;99.90;;;;;;5108933;28;20463;-67
2023/04/30 05:42:42;;;;;;;1.45;0.75;;;6.30;99.90;;;;;;5110110;28;20492;-66
2023/04/30 05:45:09;;;;;;;1.58;0.73;;;6.50;99.90;;;;;;5108951;28;20118;-67
2023/04/30 05:47:35;;;;;;;3.15;1.38;;;6.60;99.90;;;;;;5091535;28;20065;-67
2023/04/30 05:50:01;;;;;;;1.75;0.80;;;6.80;99.90;;;;;;5092136;28;20043;-66
2023/04/30 05:52:27;;;;;;;0.77;0.68;;;6.90;99.90;;;;;;5094913;28;20058;-67
2023/04/30 05:54:52;;;;;;;0.90;0.60;;;7.00;99.90;;;;;;5112510;28;20047;-67
2023/04/30 05:57:18;;;;;;;0.20;0.20;;;7.20;99.90;;;;;;5112860;28;20079;-67
2023/04/30 05:59:44;;;;;;;1.33;0.40;;;7.30;99.90;;;;;;5096139;28;20664;-66
2023/04/30 06:02:10;;;;;;;0.98;0.73;;;7.40;99.90;;;;;;5113770;28;20067;-66
2023/04/30 06:04:36;;;;;;;0.73;0.60;;;7.60;99.90;;;;;;5114270;28;20381;-66
2023/04/30 06:07:01;;;;;;;0.95;0.68;;;7.70;99.90;;;;;;5112689;28;20179;-66
2023/04/30 06:09:27;;;;;;;0.52;0.40;;;7.80;99.90;;;;;;5112113;28;20075;-66
2023/04/30 06:11:54;;;;;;;0.90;0.50;;;8.00;99.90;;;;;;5112600;28;20043;-67
2023/04/30 06:14:21;;;;;;;0.43;0.38;;;8.20;99.90;;;;;;5112377;28;20413;-66
2023/04/30 06:16:48;;;;;;;0.77;0.52;;;8.30;99.90;;;;;;5112849;28;20050;-66
2023/04/30 06:19:14;;;;;;;1.08;0.55;;;8.40;99.90;;;;;;5112534;28;20049;-66
2023/04/30 06:21:42;;;;;;;0.90;0.57;;;8.60;99.90;;;;;;5112726;28;20440;-66
2023/04/30 06:24:08;;;;;;;3.90;0.70;;;8.70;99.90;;;;;;5095497;28;20497;-66
2023/04/30 06:26:34;;;;;;;7.28;0.98;;;8.90;99.90;;;;;;5113896;28;20046;-66
2023/04/30 06:29:00;;;;;;;0.82;0.50;;;9.20;99.90;;;;;;5111848;28;20564;-66
2023/04/30 06:31:26;;;;;;;2.13;0.68;;;9.50;99.90;;;;;;5112405;28;20047;-66
2023/04/30 06:33:51;;;;;;;0.90;0.47;;;9.70;99.90;;;;;;5112426;28;20842;-66
2023/04/30 06:36:18;;;;;;;1.88;0.52;;;10.10;99.90;;;;;;5112963;28;20106;-66
2023/04/30 06:38:45;;;;;;;2.25;0.40;;;10.40;99.90;;;;;;5113591;28;20032;-66
2023/04/30 06:41:12;;;;;;;1.70;0.68;;;10.60;99.90;;;;;;5112094;28;20499;-66
2023/04/30 06:43:38;;;;;;;2.05;0.82;;;10.70;99.90;;;;;;5112957;28;20038;-66
2023/04/30 06:46:05;;;;;;;1.27;0.70;;;10.80;99.90;;;;;;5094977;28;20168;-66
2023/04/30 06:48:31;;;;;;;1.58;0.50;;;10.90;99.90;;;;;;5113248;28;20053;-66
2023/04/30 06:50:57;;;;;;;0.50;0.38;;;11.10;99.90;;;;;;5111088;28;20122;-65
2023/04/30 06:53:23;;;;;;;1.10;0.45;;;11.20;99.90;;;;;;5112959;28;20044;-65
2023/04/30 06:55:49;;;;;;;3.13;0.82;;;11.40;99.90;;;;;;5111746;28;20043;-66
2023/04/30 06:58:15;;;;;;;0.68;0.50;;;11.50;99.90;;;;;;5111547;28;20363;-66
2023/04/30 07:00:42;;;;;;;0.95;0.40;;;11.70;99.90;;;;;;5111704;28;20054;-65
2023/04/30 07:03:07;;;;;;;1.50;1.00;;;11.90;99.90;;;;;;5111004;28;20525;-65
2023/04/30 07:05:33;;;;;;;0.77;0.60;;;12.00;99.90;;;;;;5111021;28;20035;-66
2023/04/30 07:08:01;;;;;;;2.58;0.60;;;12.00;99.90;;;;;;5111707;28;20400;-65
2023/04/30 07:10:27;;;;;;;0.45;0.40;;;12.20;99.90;;;;;;5111402;28;20039;-66
2023/04/30 07:12:53;;;;;;;0.93;0.43;;;12.30;99.90;;;;;;5112131;28;20176;-66
2023/04/30 07:15:19;;;;;;;1.15;0.55;;;12.40;99.90;;;;;;5111188;28;20052;-66
2023/04/30 07:17:44;;;;;;;1.00;0.88;;;12.50;99.90;;;;;;5093753;28;20039;-66
2023/04/30 07:20:13;;;;;;;1.27;0.40;;;12.50;99.90;;;;;;5111540;28;20036;-66
2023/04/30 07:22:39;;;;;;;1.35;0.90;;;12.50;99.90;;;;;;5112857;28;20067;-66
2023/04/30 07:25:06;;;;;;;1.95;0.60;;;12.50;99.90;;;;;;5110428;28;20046;-65
2023/04/30 07:27:31;;;;;;;0.70;0.50;;;12.60;99.90;;;;;;5112244;28;20070;-66
2023/04/30 07:29:57;;;;;;;1.92;0.30;;;12.70;99.90;;;;;;5094487;28;20075;-65
2023/04/30 07:32:25;;;;;;;1.10;0.43;;;12.80;99.90;;;;;;5110814;28;20456;-66
2023/04/30 07:34:52;;;;;;;1.42;0.50;;;12.80;99.90;;;;;;5111163;28;20097;-66
2023/04/30 07:37:18;;;;;;;0.80;0.57;;;12.90;99.90;;;;;;5110977;28;20493;-65
2023/04/30 07:39:44;;;;;;;1.90;0.95;;;12.90;99.90;;;;;;5111711;28;20049;-64
2023/04/30 07:42:10;;;;;;;1.88;0.50;;;13.00;99.90;;;;;;5110739;28;20469;-65
2023/04/30 07:44:35;;;;;;;2.13;0.80;;;13.20;99.90;;;;;;5093806;28;20486;-64
2023/04/30 07:47:01;;;;;;;3.08;0.63;;;13.30;99.90;;;;;;5111353;28;20046;-64
2023/04/30 07:49:27;;;;;;;3.92;0.90;;;13.40;99.90;;;;;;5110635;28;20048;-64
2023/04/30 07:51:53;;;;;;;1.30;0.82;;;13.50;99.90;;;;;;5111697;28;20573;-65
2023/04/30 07:54:19;;;;;;;1.80;0.95;;;13.80;99.90;;;;;;5109996;28;20044;-63
2023/04/30 07:56:47;;;;;;;3.40;0.75;;;13.90;99.90;;;;;;5111638;28;20039;-65
2023/04/30 07:59:13;;;;;;;3.75;0.73;;;14.10;99.90;;;;;;5093570;28;20039;-65
2023/04/30 08:01:40;;;;;;;2.92;1.10;;;14.30;99.90;;;;;;5109950;28;20074;-65
2023/04/30 08:04:06;;;;;;;1.48;0.70;;;14.50;99.90;;;;;;5111768;28;20052;-65
2023/04/30 08:06:32;;;;;;;0.90;0.47;;;14.80;99.90;;;;;;5110611;28;20054;-65
2023/04/30 08:08:57;;;;;;;1.02;0.60;;;15.00;99.90;;;;;;5110350;28;20512;-65
2023/04/30 08:11:23;;;;;;;0.77;0.47;;;15.10;99.90;;;;;;5110353;28;20047;-65
2023/04/30 08:13:49;;;;;;;3.67;0.93;;;15.20;99.90;;;;;;5109532;28;20067;-64
2023/04/30 08:16:15;;;;;;;0.88;0.50;;;15.20;99.90;;;;;;5109149;28;20134;-65
2023/04/30 08:18:45;;;;;;;1.83;0.98;;;15.30;99.90;;;;;;5110149;28;20093;-65
2023/04/30 08:21:14;;;;;;;;;;;15.40;99.90;;;;;;5111200;28;20043;-63
2023/04/30 08:23:39;;;;;;;0.35;0.25;;;15.60;99.90;;;;;;5111497;28;20006;-65
2023/04/30 08:26:05;;;;;;;2.03;0.47;;;15.70;99.90;;;;;;5111335;28;20119;-64
2023/04/30 08:28:31;;;;;;;4.03;0.88;;;15.80;99.90;;;;;;5109525;28;20117;-65
2023/04/30 08:30:57;;;;;;;1.35;0.63;;;15.90;99.90;;;;;;5109786;28;20039;-65
2023/04/30 08:33:22;;;;;;;0.60;0.50;;;16.00;99.90;;;;;;5109462;28;20043;-65
2023/04/30 08:35:48;;;;;;;0.40;0.30;;;16.10;99.90;;;;;;5108823;28;20066;-65
2023/04/30 08:38:14;;;;;;;1.95;0.40;;;16.30;99.90;;;;;;5109825;28;20057;-64
2023/04/30 08:40:40;;;;;;;2.67;0.70;;;16.40;99.90;;;;;;5110087;28;20466;-64
2023/04/30 08:43:08;;;;;;;3.20;0.50;;;16.60;99.90;;;;;;5110685;28;20096;-65
2023/04/30 08:45:35;;;;;;;5.25;0.77;;;16.90;99.90;;;;;;5109782;28;20080;-65
2023/04/30 08:48:03;;;;;;;1.33;0.80;;;16.90;99.90;;;;;;5109736;28;20039;-64
2023/04/30 08:50:30;;;;;;;1.10;0.50;;;16.80;99.90;;;;;;5091885;28;20492;-65
2023/04/30 08:53:00;;;;;;;1.00;0.65;;;16.80;99.90;;;;;;5109681;28;20054;-65
2023/04/30 08:55:26;;;;;;;0.60;0.32;;;17.00;99.90;;;;;;5110585;28;20047;-65
2023/04/30 08:57:52;;;;;;;2.45;0.70;;;16.90;99.90;;;;;;5108741;28;20040;-65
2023/04/30 09:00:19;;;;;;;2.40;0.85;;;16.60;99.90;;;;;;5109328;28;20120;-64
2023/04/30 09:02:47;;;;;;;4.00;0.68;;;16.40;99.90;;;;;;5110062;28;20525;-65
2023/04/30 09:05:14;;;;;;;0.90;0.50;;;16.30;99.90;;;;;;5092374;28;20039;-64
2023/04/30 09:07:42;;;;;;;2.90;0.40;;;16.20;99.90;;;;;;5110483;28;20055;-63
2023/04/30 09:10:19;;;;;;;0.88;0.43;;;16.10;99.90;;;;;;5110017;28;20042;-65
2023/04/30 09:13:00;;;;;;;0.77;0.50;;;16.10;99.90;;;;;;5092388;28;20058;-64
2023/04/30 09:15:26;;;;;;;0.90;0.50;;;16.30;99.90;;;;;;5110763;28;20044;-64
2023/04/30 09:18:16;;;;;;;1.38;0.47;;;16.60;99.90;;;;;;5110246;28;20040;-64
2023/04/30 09:20:56;;;;;;;1.77;0.93;;;16.90;99.90;;;;;;5109122;28;20040;-64
2023/04/30 09:23:22;;;;;;;0.65;0.30;;;17.40;99.90;;;;;;5109280;28;20039;-64
2023/04/30 09:25:48;;;;;;;1.98;0.50;;;17.70;99.90;;;;;;5108534;28;20043;-64
2023/04/30 09:28:14;;;;;;;2.90;0.68;;;18.30;99.90;;;;;;5113238;28;20047;-65
2023/04/30 09:30:41;;;;;;;3.25;1.13;;;18.70;99.90;;;;;;5112915;28;20040;-65
2023/04/30 09:33:07;;;;;;;0.60;0.50;;;18.80;99.90;;;;;;5114462;28;20513;-65
2023/04/30 09:35:37;;;;;;;1.63;0.50;;;19.10;99.90;;;;;;5114051;28;20103;-65
2023/04/30 09:38:05;;;;;;;0.95;0.30;;;19.40;99.90;;;;;;5112964;28;20071;-64
2023/04/30 09:40:36;;;;;;;0.73;0.45;;;19.70;99.90;;;;;;5111853;28;20043;-65
2023/04/30 09:43:02;;;;;;;1.23;0.32;;;20.00;99.90;;;;;;5113596;28;20032;-64
2023/04/30 09:45:51;;;;;;;2.00;0.50;;;20.20;99.90;;;;;;5111812;28;20086;-65
2023/04/30 09:48:21;;;;;;;1.67;0.88;;;20.10;99.90;;;;;;5111970;28;20048;-65
2023/04/30 09:50:48;;;;;;;1.08;0.68;;;19.80;99.90;;;;;;5114682;28;20043;-64
2023/04/30 09:53:17;;;;;;;1.98;0.50;;;19.90;99.90;;;;;;5112246;28;20104;-64
2023/04/30 09:55:45;;;;;;;1.20;0.70;;;19.80;99.90;;;;;;5111872;28;20039;-64
2023/04/30 09:58:12;;;;;;;2.40;0.70;;;19.80;99.90;;;;;;5114273;28;20113;-65
2023/04/30 10:00:39;;;;;;;2.33;0.50;;;19.80;99.90;;;;;;5111978;28;20474;-65
2023/04/30 10:03:10;;;;;;;2.72;0.55;;;19.80;99.90;;;;;;5112649;28;20039;-65
2023/04/30 10:05:39;;;;;;;2.95;0.85;;;19.80;99.90;;;;;;5111958;28;20047;-64
2023/04/30 10:08:12;;;;;;;0.90;0.40;;;19.60;99.90;;;;;;5112569;28;20096;-64
2023/04/30 10:10:41;;;;;;;1.65;0.40;;;19.60;99.90;;;;;;5096007;28;20047;-64
2023/04/30 10:13:13;;;;;;;1.00;0.45;;;19.60;99.90;;;;;;5109306;28;20105;-65
2023/04/30 10:15:44;;;;;;;1.25;0.73;;;19.50;99.90;;;;;;5112396;28;20044;-65
2023/04/30 10:18:18;;;;;;;1.17;0.40;;;19.60;99.90;;;;;;5112301;28;20084;-64
2023/04/30 10:20:46;;;;;;;0.57;0.30;;;19.80;99.90;;;;;;5112150;28;20044;-65
2023/04/30 10:23:13;;;;;;;0.90;0.30;;;20.20;99.90;;;;;;5095422;28;20042;-64
2023/04/30 10:25:39;;;;;;;1.95;0.60;;;20.40;99.90;;;;;;5113657;28;20031;-64
2023/04/30 10:28:07;;;;;;;1.05;0.40;;;20.20;99.90;;;;;;5113179;27;20048;-64
2023/04/30 10:30:34;;;;;;;2.53;1.02;;;19.70;99.90;;;;;;5112360;28;20035;-64
2023/04/30 10:33:16;;;;;;;0.75;0.43;;;19.20;99.90;;;;;;5112089;28;20050;-64
2023/04/30 10:35:49;;;;;;;0.90;0.57;;;18.70;99.90;;;;;;5112849;28;20043;-64
2023/04/30 10:38:27;;;;;;;0.88;0.50;;;18.30;99.90;;;;;;5111199;28;20044;-64
2023/04/30 10:40:58;;;;;;;1.52;0.70;;;17.90;99.90;;;;;;5094429;28;20047;-64
2023/04/30 10:43:24;;;;;;;1.70;0.60;;;17.60;99.90;;;;;;5113300;28;20055;-64
2023/04/30 10:45:50;;;;;;;1.35;0.65;;;17.70;99.90;;;;;;5111891;28;20043;-64
2023/04/30 10:48:23;;;;;;;0.85;0.50;;;17.80;99.90;;;;;;5112488;28;20104;-65
2023/04/30 10:50:54;;;;;;;1.15;0.50;;;18.10;99.90;;;;;;5112904;28;20105;-64
2023/04/30 10:53:21;;;;;;;1.42;0.57;;;18.70;99.90;;;;;;5111743;28;20485;-64
2023/04/30 10:56:05;;;;;;;1.90;0.63;;;19.30;99.90;;;;;;5112651;28;20043;-64
2023/04/30 10:58:33;;;;;;;2.45;0.47;;;19.80;99.90;;;;;;5111640;28;20040;-65
2023/04/30 11:01:03;;;;;;;1.00;0.50;;;20.10;99.90;;;;;;5112955;28;20050;-64
2023/04/30 11:03:31;;;;;;;1.60;0.60;;;20.30;99.90;;;;;;5111203;28;20043;-64
2023/04/30 11:06:02;;;;;;;1.13;0.50;;;20.40;99.20;;;;;;5111448;28;20046;-64
2023/04/30 11:08:35;;;;;;;1.15;0.75;;;20.50;99.90;;;;;;5111639;28;20067;-64
2023/04/30 11:11:01;;;;;;;0.85;0.47;;;20.20;98.60;;;;;;5112491;28;20123;-65
2023/04/30 11:13:27;;;;;;;1.10;0.60;;;20.10;98.40;;;;;;5090155;28;20127;-64
2023/04/30 11:15:53;;;;;;;1.95;0.35;;;19.70;99.30;;;;;;5089891;28;20051;-64
2023/04/30 11:18:19;;;;;;;1.13;0.47;;;19.30;99.30;;;;;;5090580;28;20101;-64
2023/04/30 11:20:51;;;;;;;0.82;0.40;;;19.20;99.90;;;;;;5092391;28;20032;-64
2023/04/30 11:23:22;;;;;;;4.90;1.27;;;19.20;99.60;;;;;;5073031;28;20055;-65
2023/04/30 11:25:48;;;;;;;2.83;0.68;;;19.20;98.00;;;;;;5092097;28;20048;-65
2023/04/30 11:28:25;;;;;;;1.77;0.50;;;19.30;99.60;;;;;;5091822;28;20048;-66
2023/04/30 11:30:56;;;;;;;1.90;0.28;;;19.50;99.40;;;;;;5090155;28;20047;-65
2023/04/30 11:33:23;;;;;;;1.10;0.40;;;19.40;99.60;;;;;;5090440;28;20039;-66
2023/04/30 11:35:54;;;;;;;0.70;0.32;;;19.40;98.40;;;;;;5090157;28;20516;-65
2023/04/30 11:38:28;;;;;;;0.95;0.40;;;19.30;98.90;;;;;;5089972;28;20066;-65
2023/04/30 11:40:59;;;;;;;1.20;0.40;;;19.20;98.20;;;;;;5090480;28;20036;-65
2023/04/30 11:43:28;;;;;;;3.28;0.70;;;19.00;98.90;;;;;;5090372;28;20076;-65
2023/04/30 11:46:11;;;;;;;2.00;0.50;;;19.10;99.40;;;;;;5089887;28;20072;-65
2023/04/30 11:48:42;;;;;;;0.65;0.38;;;19.20;99.20;;;;;;5091564;28;20489;-64
2023/04/30 11:51:15;;;;;;;1.00;0.30;;;19.30;99.90;;;;;;5071865;28;20044;-64
2023/04/30 11:53:41;;;;;;;1.60;0.40;;;19.40;99.60;;;;;;5095472;28;20504;-65
2023/04/30 11:56:09;;;;;;;0.85;0.40;;;19.50;98.40;;;;;;5088449;28;20044;-65
2023/04/30 11:58:39;;;;;;;1.17;0.30;;;19.60;99.60;;;;;;5087780;28;20036;-65
2023/04/30 12:01:09;;;;;;;1.17;0.38;;;19.70;99.90;;;;;;5088729;28;20039;-66
2023/04/30 12:03:46;;;;;;;2.80;0.50;;;19.80;99.90;;;;;;5088847;28;20283;-64
2023/04/30 12:06:24;;;;;;;1.27;0.35;;;19.70;99.90;;;;;;5085090;28;20051;-65
2023/04/30 12:09:00;;;;;;;1.40;0.40;;;19.70;99.20;;;;;;5102742;28;20036;-64
2023/04/30 12:11:30;;;;;;;0.50;0.28;;;19.40;99.50;;;;;;5098932;28;20039;-64
2023/04/30 12:14:06;;;;;;;3.45;1.10;;;19.30;99.80;;;;;;5092355;28;20068;-64
2023/04/30 12:16:50;;;;;;;0.85;0.47;;;19.20;99.50;;;;;;5089190;28;20131;-65
2023/04/30 12:19:19;;;;;;;0.75;0.22;;;19.20;99.30;;;;;;5086934;28;20519;-65
2023/04/30 12:21:46;;;;;;;;;;;19.10;98.90;;;;;;5090950;28;20028;-64
2023/04/30 12:24:17;;;;;;;1.60;0.50;;;19.00;98.60;;;;;;5089169;28;20480;-64
2023/04/30 12:26:44;;;;;;;0.68;0.35;;;18.90;98.20;;;;;;5089506;28;20082;-65
2023/04/30 12:29:14;;;;;;;2.72;0.50;;;18.80;97.40;;;;;;5089040;28;20040;-65
2023/04/30 12:31:42;;;;;;;0.88;0.60;;;18.70;99.00;;;;;;5088755;28;20036;-66
2023/04/30 12:34:10;;;;;;;0.43;0.28;;;18.80;98.80;;;;;;5088752;28;20035;-65
2023/04/30 12:36:41;;;;;;;1.48;0.80;;;18.70;99.00;;;;;;5090015;28;20050;-65
2023/04/30 12:39:15;;;;;;;1.27;0.57;;;18.60;98.80;;;;;;5088897;28;20132;-64
2023/04/30 12:41:45;;;;;;;0.63;0.47;;;18.60;99.30;;;;;;5071758;28;20363;-65
2023/04/30 12:44:23;;;;;;;1.85;0.40;;;18.70;99.30;;;;;;5090224;28;20044;-64
2023/04/30 12:46:52;;;;;;;5.00;0.60;;;18.80;98.90;;;;;;5088686;28;20048;-64
2023/04/30 12:49:34;;;;;;;1.10;0.50;;;18.80;98.40;;;;;;5089097;28;20505;-65
2023/04/30 12:52:06;;;;;;;2.08;0.70;;;18.70;98.10;;;;;;5090411;28;20501;-65
2023/04/30 12:54:33;;;;;;;0.68;0.35;;;18.70;98.60;;;;;;5089812;28;20173;-65
2023/04/30 12:57:10;;;;;;;0.47;0.30;;;18.80;99.20;;;;;;5086882;28;20039;-66
2023/04/30 12:59:58;;;;;;;0.40;0.30;;;18.90;98.80;;;;;;5079050;28;20173;-65